カラカス の空港の天気 - METARとTAF

シモン・ボリバー空港(バルガス) ( SVMI / CCS ) - ベネズエラ バルガス州、Maiquetia (カラカス近郊)
飛行場実況気象(Metar)
観測時間05/26 19:00 VET (05/26 23:00 UTC)
風向・風速東南東 1m/s
視程10km以上
天気現象
全天の8割程度の雲 雲底高度 490m
気温30℃
湿度62%
気圧1012hPa
METARSVMI 262300Z 11002KT 9999 BKN016 30/22 Q1012
過去の天気等 Google飛行場航空写真 Wunderground天気予報

過去48時間のMETAR

飛行場予報(TAF)
発表時間: 5/26 18:00 VET (5/26 22:00 UTC)
予報対象時間: 26日20時 VET ~ 27日20時 VET
風向・風速東 5m/s
視程10km以上
全天の4割程度の雲 雲底高度 490m
26日20時 VET ~ 26日24時 VET に徐々に
風向・風速東 3m/s
視程9000m
天気現象弱い霧雨
全天の4割程度の雲 雲底高度 490m
全天の8割程度の雲 雲底高度 490m
TAF SVMI 262200Z 2700/2800 09010KT 9999 SCT016 TX33/17Z TN22/09Z
BECMG 2700/2704 08005KT 9000 -DZ SCT016 BKN016